Curtis, Michigan
Current Conditions -  °F | °C
As of 12:14 AM on Saturday 20 Dec 2014 (Local Time) from KERY Reporting Station
Overcast Overcast  
Wind Chill: 21°   Ceiling: 1800
Heat Index: 21°   Visibility: 10mi
Dew Point: 20°   Wind: 0mph
Humidity: 93%   Direction: NA
Pressure: 30.25"   Gusts: NA
Location:  46.2°N, 85.73°W
Report Text: KERY 200514Z AUTO 00000KT 10SM OVC018 M06/M07 A3025 RMK AO2 T10591068
Loading
Personal Weather Stations






























Interactive Weather Map New forecast layout! Learn more

10-Day Weather Forecast

Advertisements
Track Severe Weather on mobile